Aeroporto :
LOGIN :

Iscrizione | Disclaimer

   EN    FR    IT 

 










Sommario :    VFR   VFR Marginale   IFR   IFR Intensivo   IFR Molto Intensivo
Visibilità : 
Base nubi : 
>= 8 km
>= 3000ft
5 / 8 km
1000 / 3000 ft
1500m / 5 km
500 / 1000 ft
800 / 1500m
200 / 500 ft
< 800m
< 200 ft
Simboli :   Temporali  Nebbia  Neve Forte  Precipitazioni Forti  Vento > 20 kt
SIGMETs :   Varie  Temporali  Ghiacco  Turbolenza  Onda orograficha  Ceneri Vulcaniche






- Altitudine del aeroporto : 302 ft
- Codice IATA : CGN


EDDK - Cologne Bonn

ULTIMO METAR :
  • 141920Z 08003KT 040V110 CAVOK 05/01 Q1003 NOSIG

METARs OBSOLETI :
  • 141850Z 13004KT CAVOK 06/01 Q1003 NOSIG
  • 141820Z 07003KT 050V120 CAVOK 06/01 Q1003 NOSIG
  • 141750Z 10004KT 070V140 CAVOK 06/01 Q1003 NOSIG
  • 141720Z 07004KT 050V110 CAVOK 06/01 Q1002 NOSIG
  • 141650Z VRB01KT CAVOK 07/01 Q1003 NOSIG

TAF TAF EDDK
Valido dal 14 a 18 ore il 16 a 00 ore UTC


141700Z 1418/1524 VRB03KT CAVOK
TEMPO 1509/1517 14005KT



MetMap, La meteo Aeronautica in un colpo d'occhio ! - Copyright ORBIFLY Dicembre 2007 - Disclaimer

ORBIFLY MET'MAP TEAM :

Programmazione e sviluppo : Alexandra Zaïnal
Concezione e sviluppo : Baudouin d'Aumeries
Co-Programmazione e sviluppo : Marc-Olivier Méhu
Supporto tecnico e logistico : Manuel Goepfert
Aiuto per la traduzione : Arnaldo La Scala

Contatto : metmap@orbifly.com




FONTI E CREDITI :

   NOAA